PILOTS ONLINE: 537    ATC ONLINE: 83

KFOE - Forbes Field

Location

IATA FOE
City Topeka
Country  United States
Latitude 38° 57' 3" N
Longitude 95° 39' 48" W
Elevation 1078 ft
Type Medium Airport

Runways

03/21 7000 ft / 150 ft
13/31 12802 ft / 200 ft

Weather

METAR
2014/07/29 19:53
KFOE 291953Z 35004KT 10SM R31/3000VP6000FT FEW075 28/13 A3015 RMK AO2 SLP202 T02830128
TAF
2014/07/29 18:21
TAF KFOE 291720Z 2918/3018 34006KT P6SM SCT050 BKN100 
     FM300100 04002KT P6SM SCT100 
     FM301100 03003KT P6SM BKN090

Outbound flights

Inbound flights